createdAt,value
2022-11-29T00:02:19.934Z,25.00
2022-11-29T00:05:06.511Z,26.63
2022-11-29T00:07:49.633Z,26.75
2022-11-29T00:10:43.202Z,25.52
2022-11-29T00:13:29.453Z,27.55
2022-11-29T00:16:28.429Z,28.95
2022-11-29T00:19:08.770Z,27.20
2022-11-29T00:21:57.148Z,28.38
2022-11-29T00:24:48.539Z,29.75
2022-11-29T00:27:32.369Z,26.20
2022-11-29T00:30:16.783Z,28.40
2022-11-29T00:33:04.978Z,26.92
2022-11-29T00:35:46.843Z,26.15
2022-11-29T00:38:30.984Z,25.95
2022-11-29T00:41:27.279Z,28.90
2022-11-29T00:44:16.753Z,30.58
2022-11-29T00:47:03.317Z,30.80
2022-11-29T00:49:40.676Z,28.40
2022-11-29T00:52:26.473Z,32.58
2022-11-29T00:55:23.440Z,30.20
2022-11-29T00:58:09.820Z,32.70
2022-11-29T01:00:55.462Z,35.83
2022-11-29T01:03:41.120Z,28.77
2022-11-29T01:06:23.034Z,31.75
2022-11-29T01:09:13.003Z,28.35
2022-11-29T01:11:55.044Z,26.55
2022-11-29T01:14:46.583Z,28.58
2022-11-29T01:17:43.990Z,27.85
2022-11-29T01:23:08.433Z,25.20
2022-11-29T01:25:52.773Z,27.02
2022-11-29T01:28:37.815Z,31.10
2022-11-29T01:31:20.188Z,27.58
2022-11-29T01:34:10.023Z,28.25
2022-11-29T01:36:53.313Z,26.80
2022-11-29T01:39:39.988Z,28.23
2022-11-29T01:42:32.370Z,26.85
2022-11-29T01:45:32.202Z,29.95
2022-11-29T01:48:17.034Z,30.83
2022-11-29T01:51:01.419Z,28.70
2022-11-29T01:53:44.716Z,28.52
2022-11-29T01:56:36.138Z,28.92
2022-11-29T01:59:17.386Z,28.40
2022-11-29T02:01:52.235Z,29.25
2022-11-29T02:04:37.302Z,28.15
2022-11-29T02:07:23.788Z,27.17
2022-11-29T02:10:02.020Z,29.33
2022-11-29T02:13:32.289Z,28.13
2022-11-29T02:17:03.147Z,26.58
2022-11-29T02:20:00.955Z,29.92
2022-11-29T02:23:03.970Z,29.25
2022-11-29T02:26:22.452Z,30.17
2022-11-29T02:29:29.349Z,28.73
2022-11-29T02:32:40.928Z,28.48
2022-11-29T02:35:55.955Z,26.27
2022-11-29T02:39:12.871Z,28.13
2022-11-29T02:43:01.839Z,29.05
2022-11-29T02:46:05.953Z,26.00
2022-11-29T02:49:12.450Z,28.02
2022-11-29T02:52:46.380Z,29.33
2022-11-29T02:56:12.286Z,26.98
2022-11-29T02:59:22.817Z,26.77
2022-11-29T03:02:45.156Z,27.35
2022-11-29T03:05:39.019Z,27.42
2022-11-29T03:08:46.997Z,29.85
2022-11-29T03:11:42.610Z,29.05
2022-11-29T03:14:22.974Z,28.58
2022-11-29T03:17:31.630Z,29.60
2022-11-29T03:21:07.997Z,25.55
2022-11-29T03:24:12.327Z,28.73
2022-11-29T03:26:55.148Z,30.98
2022-11-29T03:29:49.010Z,29.98
2022-11-29T03:32:48.747Z,30.25
2022-11-29T03:35:42.889Z,28.10
2022-11-29T03:39:08.405Z,27.88
2022-11-29T03:42:00.630Z,27.38
2022-11-29T03:44:54.055Z,25.73
2022-11-29T03:47:52.051Z,20.48
2022-11-29T03:50:58.469Z,26.55
2022-11-29T03:53:50.971Z,26.48
2022-11-29T03:56:45.575Z,25.80
2022-11-29T03:59:56.311Z,25.17
2022-11-29T04:02:37.095Z,27.95
2022-11-29T04:05:27.754Z,26.80
2022-11-29T04:08:49.130Z,28.50
2022-11-29T04:11:59.955Z,29.38
2022-11-29T04:15:15.442Z,26.88
2022-11-29T04:18:13.579Z,26.15
2022-11-29T04:21:23.260Z,29.52
2022-11-29T04:24:22.813Z,28.50
2022-11-29T04:27:20.327Z,26.60
2022-11-29T04:30:32.853Z,27.33
2022-11-29T04:33:35.225Z,26.15
2022-11-29T04:37:04.268Z,25.02
2022-11-29T04:40:07.573Z,26.45
2022-11-29T04:43:22.552Z,25.45
2022-11-29T04:46:11.969Z,25.67
2022-11-29T04:49:12.109Z,25.67
2022-11-29T04:52:14.579Z,26.48
2022-11-29T04:55:27.636Z,25.25
2022-11-29T04:58:25.382Z,25.80
2022-11-29T05:01:13.120Z,27.80
2022-11-29T05:03:57.513Z,23.40
2022-11-29T05:07:10.913Z,27.90
2022-11-29T05:10:18.911Z,26.48
2022-11-29T05:13:32.214Z,27.10
2022-11-29T05:20:34.510Z,26.60
2022-11-29T05:24:06.519Z,25.13
2022-11-29T05:26:51.625Z,24.75
2022-11-29T05:29:43.332Z,26.38
2022-11-29T05:32:41.017Z,23.63
2022-11-29T05:35:58.649Z,26.05
2022-11-29T05:39:13.970Z,24.40
2022-11-29T05:41:58.010Z,27.35
2022-11-29T05:44:57.776Z,24.23
2022-11-29T05:48:05.445Z,27.08
2022-11-29T05:50:53.604Z,24.00
2022-11-29T05:57:37.724Z,22.80
2022-11-29T06:00:22.994Z,21.10
2022-11-29T06:03:13.136Z,22.17
2022-11-29T06:06:10.965Z,22.13
2022-11-29T06:09:14.261Z,20.98
2022-11-29T06:12:06.890Z,20.73
2022-11-29T06:15:13.967Z,22.90
2022-11-29T06:18:23.668Z,24.35
2022-11-29T06:21:23.950Z,23.73
2022-11-29T06:24:34.477Z,22.45
2022-11-29T06:27:44.492Z,25.25
2022-11-29T06:30:26.688Z,23.15
2022-11-29T06:33:49.419Z,25.08
2022-11-29T06:36:34.610Z,25.25
2022-11-29T06:39:17.962Z,25.42
2022-11-29T06:42:01.880Z,25.90
2022-11-29T06:44:43.346Z,25.20
2022-11-29T06:48:19.174Z,24.98
2022-11-29T06:51:02.987Z,27.27
2022-11-29T06:54:02.075Z,25.52
2022-11-29T06:56:49.909Z,26.17
2022-11-29T06:59:37.565Z,28.42
2022-11-29T07:02:34.025Z,28.67
2022-11-29T07:05:42.854Z,29.38
2022-11-29T07:08:29.003Z,26.35
2022-11-29T07:11:05.551Z,27.10
2022-11-29T07:13:46.673Z,28.17
2022-11-29T07:16:46.580Z,27.40
2022-11-29T07:19:36.819Z,26.95
2022-11-29T07:22:47.856Z,26.10
2022-11-29T07:25:31.167Z,31.65
2022-11-29T07:28:34.251Z,26.88
2022-11-29T07:31:48.117Z,27.88
2022-11-29T07:35:13.410Z,27.27
2022-11-29T07:38:22.147Z,26.98
2022-11-29T07:41:33.273Z,29.83
2022-11-29T07:44:26.714Z,26.65
2022-11-29T07:47:17.285Z,30.00
2022-11-29T07:49:57.892Z,26.50
2022-11-29T07:52:37.008Z,26.17
2022-11-29T07:55:32.874Z,24.27
2022-11-29T07:58:20.981Z,27.02
2022-11-29T08:00:56.255Z,23.17
2022-11-29T08:03:29.456Z,24.95
2022-11-29T08:06:12.749Z,24.38
2022-11-29T08:08:53.643Z,22.75
2022-11-29T08:11:36.900Z,23.00
2022-11-29T08:14:07.891Z,23.02
2022-11-29T08:16:52.338Z,27.58
2022-11-29T08:22:12.131Z,20.60
2022-11-29T08:25:00.923Z,22.38
2022-11-29T08:27:37.380Z,24.20
2022-11-29T08:30:22.938Z,24.38
2022-11-29T08:32:56.531Z,23.77
2022-11-29T08:35:29.938Z,24.98
2022-11-29T08:38:17.034Z,25.45
2022-11-29T08:40:49.476Z,25.40
2022-11-29T08:43:32.583Z,18.30
2022-11-29T08:46:11.353Z,25.10
2022-11-29T08:48:55.793Z,27.25
2022-11-29T08:51:45.390Z,25.95
2022-11-29T08:54:21.137Z,24.98
2022-11-29T09:00:00.677Z,25.73
2022-11-29T09:02:43.968Z,25.35
2022-11-29T09:05:24.221Z,24.00
2022-11-29T09:08:02.958Z,26.23
2022-11-29T09:10:51.787Z,23.85
2022-11-29T09:13:39.314Z,26.63
2022-11-29T09:16:25.340Z,23.85
2022-11-29T09:19:19.929Z,24.33
2022-11-29T09:21:57.666Z,26.85
2022-11-29T09:24:55.863Z,25.25
2022-11-29T09:27:44.641Z,25.75
2022-11-29T09:30:26.542Z,24.92
2022-11-29T09:33:16.217Z,23.10
2022-11-29T09:35:54.234Z,25.13
2022-11-29T09:38:42.921Z,23.73
2022-11-29T09:41:48.978Z,23.73
2022-11-29T09:44:51.314Z,23.60
2022-11-29T09:47:53.404Z,22.70
2022-11-29T09:50:48.547Z,24.40
2022-11-29T09:53:38.045Z,22.30
2022-11-29T09:56:30.564Z,25.30
2022-11-29T09:59:29.082Z,24.98
2022-11-29T10:02:41.047Z,23.48
2022-11-29T10:05:46.676Z,22.88
2022-11-29T10:08:27.050Z,24.20
2022-11-29T10:11:25.136Z,24.65
2022-11-29T10:14:21.561Z,23.73
2022-11-29T10:17:15.431Z,25.65
2022-11-29T10:20:43.531Z,24.15
2022-11-29T10:23:35.422Z,24.92
2022-11-29T10:26:21.045Z,25.05
2022-11-29T10:29:01.917Z,22.83
2022-11-29T10:34:27.409Z,31.60
2022-11-29T10:37:13.913Z,23.77
2022-11-29T10:40:04.203Z,26.25
2022-11-29T10:42:54.991Z,26.42
2022-11-29T10:45:50.270Z,38.20
2022-11-29T10:48:34.345Z,25.25
2022-11-29T10:51:19.144Z,27.23
2022-11-29T10:54:08.592Z,25.52
2022-11-29T10:56:42.965Z,24.10
2022-11-29T10:59:24.340Z,25.17
2022-11-29T11:02:03.376Z,25.77
2022-11-29T11:04:50.132Z,27.95
2022-11-29T11:07:43.131Z,24.85
2022-11-29T11:10:39.411Z,26.10
2022-11-29T11:13:26.934Z,25.27
2022-11-29T11:16:23.544Z,24.25
2022-11-29T11:19:00.665Z,23.13
2022-11-29T11:21:46.375Z,28.88
2022-11-29T11:24:32.169Z,25.17
2022-11-29T11:27:17.370Z,22.65
2022-11-29T11:30:02.019Z,25.00
2022-11-29T11:32:46.243Z,25.33
2022-11-29T11:35:30.071Z,24.10
2022-11-29T11:38:27.992Z,24.23
2022-11-29T11:41:18.699Z,23.77
2022-11-29T11:43:59.913Z,27.50
2022-11-29T11:46:50.346Z,24.50
2022-11-29T11:50:08.901Z,23.90
2022-11-29T11:53:00.258Z,24.23
2022-11-29T11:56:10.891Z,23.58
2022-11-29T11:58:56.834Z,23.67
2022-11-29T12:01:48.420Z,22.48
2022-11-29T12:04:48.238Z,24.30
2022-11-29T12:08:07.449Z,22.73
2022-11-29T12:11:07.461Z,23.40
2022-11-29T12:13:51.303Z,22.20
2022-11-29T12:16:49.069Z,23.63
2022-11-29T12:19:41.412Z,24.13
2022-11-29T12:22:28.071Z,24.40
2022-11-29T12:25:15.867Z,22.42
2022-11-29T12:27:57.846Z,25.92
2022-11-29T12:30:36.270Z,25.65
2022-11-29T12:33:46.745Z,28.60
2022-11-29T12:36:42.450Z,28.88
2022-11-29T12:39:57.096Z,28.67
2022-11-29T12:43:07.357Z,28.20
2022-11-29T12:46:02.317Z,25.92
2022-11-29T12:48:50.862Z,30.02
2022-11-29T12:52:01.383Z,29.15
2022-11-29T12:55:11.891Z,31.38
2022-11-29T12:58:04.776Z,30.77
2022-11-29T13:00:55.692Z,30.90
2022-11-29T13:03:59.348Z,32.47
2022-11-29T13:06:58.851Z,33.30
2022-11-29T13:09:34.044Z,32.03
2022-11-29T13:12:43.446Z,33.10
2022-11-29T13:15:24.906Z,33.58
2022-11-29T13:18:09.122Z,33.00
2022-11-29T13:20:52.310Z,31.95
2022-11-29T13:24:08.520Z,34.13
2022-11-29T13:26:54.391Z,33.90
2022-11-29T13:29:41.071Z,34.65
2022-11-29T13:32:32.186Z,34.67
2022-11-29T13:35:27.933Z,34.42
2022-11-29T13:38:30.891Z,34.00
2022-11-29T13:41:34.519Z,35.22
2022-11-29T13:44:40.157Z,37.25
2022-11-29T13:47:33.527Z,38.05
2022-11-29T13:51:07.302Z,35.13
2022-11-29T13:53:51.159Z,31.75
2022-11-29T13:57:01.929Z,33.17
2022-11-29T13:59:50.965Z,34.30
2022-11-29T14:02:38.458Z,31.85
2022-11-29T14:05:31.213Z,32.22
2022-11-29T14:15:06.900Z,28.20
2022-11-29T14:17:49.299Z,28.67
2022-11-29T14:21:02.710Z,30.02
2022-11-29T14:23:56.570Z,39.20
2022-11-29T14:26:39.445Z,35.17
2022-11-29T14:29:59.549Z,31.40
2022-11-29T14:32:49.894Z,30.40
2022-11-29T14:35:51.985Z,30.45
2022-11-29T14:38:36.070Z,32.08
2022-11-29T14:41:25.313Z,31.85
2022-11-29T14:44:21.137Z,30.10
2022-11-29T14:47:21.349Z,30.30
2022-11-29T14:50:03.394Z,32.47
2022-11-29T14:53:04.848Z,32.47
2022-11-29T14:55:48.300Z,33.10
2022-11-29T14:58:31.434Z,29.13
2022-11-29T15:01:14.577Z,30.02
2022-11-29T15:04:01.014Z,35.33
2022-11-29T15:06:53.166Z,30.52
2022-11-29T15:09:34.534Z,31.35
2022-11-29T15:12:21.978Z,30.08
2022-11-29T15:15:22.229Z,27.98
2022-11-29T15:18:11.086Z,27.83
2022-11-29T15:21:32.319Z,27.67
2022-11-29T15:24:15.569Z,28.13
2022-11-29T15:27:03.914Z,20.50
2022-11-29T15:29:57.243Z,30.73
2022-11-29T15:32:39.997Z,29.40
2022-11-29T15:35:18.670Z,28.90
2022-11-29T15:37:56.970Z,30.30
2022-11-29T15:40:40.956Z,29.98
2022-11-29T15:43:40.218Z,30.35
2022-11-29T15:46:27.908Z,29.58
2022-11-29T15:49:26.656Z,28.85
2022-11-29T15:52:22.837Z,29.58
2022-11-29T15:55:09.330Z,29.90
2022-11-29T15:57:51.703Z,28.13
2022-11-29T16:00:32.933Z,28.27
2022-11-29T16:03:31.980Z,30.45
2022-11-29T16:06:21.442Z,29.00
2022-11-29T16:08:58.193Z,34.92
2022-11-29T16:11:37.067Z,37.72
2022-11-29T16:14:59.493Z,42.08
2022-11-29T16:17:50.375Z,42.40
2022-11-29T16:20:25.574Z,43.58
2022-11-29T16:23:35.788Z,41.38
2022-11-29T16:26:23.981Z,43.22
2022-11-29T16:29:00.579Z,44.17
2022-11-29T16:31:53.929Z,47.55
2022-11-29T16:34:35.022Z,42.90
2022-11-29T16:37:40.582Z,47.33
2022-11-29T16:40:34.780Z,45.17
2022-11-29T16:43:23.509Z,51.78
2022-11-29T16:46:22.724Z,49.95
2022-11-29T16:49:01.659Z,56.47
2022-11-29T16:51:51.866Z,57.58
2022-11-29T16:54:44.494Z,49.63
2022-11-29T16:57:40.853Z,49.42
2022-11-29T17:00:57.430Z,47.15
2022-11-29T17:03:32.760Z,45.00
2022-11-29T17:06:32.971Z,49.20
2022-11-29T17:09:10.444Z,45.25
2022-11-29T17:11:59.934Z,46.72
2022-11-29T17:14:36.063Z,44.83
2022-11-29T17:17:22.262Z,47.92
2022-11-29T17:20:03.501Z,43.33
2022-11-29T17:22:45.445Z,42.42
2022-11-29T17:25:21.151Z,43.47
2022-11-29T17:28:04.320Z,43.17
2022-11-29T17:30:45.874Z,41.55
